sensor_id;sensor_type;location;lat;lon;timestamp;pressure;altitude;pressure_sealevel;temperature;humidity
69524;BME280;56723;42.694;23.286;2023-05-20T07:54:27;95304.31;;;18.64;53.23
69524;BME280;56723;42.694;23.286;2023-05-20T07:56:56;95299.66;;;18.73;52.52
69524;BME280;56723;42.694;23.286;2023-05-20T07:59:24;95291.50;;;18.87;54.75
69524;BME280;56723;42.694;23.286;2023-05-20T08:01:51;95287.38;;;19.05;53.13
69524;BME280;56723;42.694;23.286;2023-05-20T08:04:19;95292.19;;;19.08;52.75
69524;BME280;56723;42.694;23.286;2023-05-20T08:06:46;95291.72;;;19.17;51.68
69524;BME280;56723;42.694;23.286;2023-05-20T08:09:21;95290.81;;;19.30;52.83
69524;BME280;56723;42.694;23.286;2023-05-20T08:11:53;95286.72;;;19.41;49.93
69524;BME280;56723;42.694;23.286;2023-05-20T08:14:20;95274.63;;;19.33;50.14
69524;BME280;56723;42.694;23.286;2023-05-20T08:16:50;95282.31;;;19.34;50.30
69524;BME280;56723;42.694;23.286;2023-05-20T08:19:20;95275.84;;;19.37;51.71
69524;BME280;56723;42.694;23.286;2023-05-20T08:21:48;95283.88;;;19.42;51.32
69524;BME280;56723;42.694;23.286;2023-05-20T08:24:16;95280.69;;;19.33;51.56
69524;BME280;56723;42.694;23.286;2023-05-20T08:26:43;95285.09;;;19.46;52.56
69524;BME280;56723;42.694;23.286;2023-05-20T08:29:10;95280.16;;;19.56;52.09
69524;BME280;56723;42.694;23.286;2023-05-20T08:31:37;95277.63;;;19.68;50.97
69524;BME280;56723;42.694;23.286;2023-05-20T08:34:05;95275.88;;;19.62;50.07
69524;BME280;56723;42.694;23.286;2023-05-20T08:36:32;95276.09;;;19.60;50.64
69524;BME280;56723;42.694;23.286;2023-05-20T08:39:00;95278.44;;;19.68;50.46
69524;BME280;56723;42.694;23.286;2023-05-20T08:41:28;95281.41;;;19.54;50.40
69524;BME280;56723;42.694;23.286;2023-05-20T08:43:58;95282.38;;;19.59;50.44
69524;BME280;56723;42.694;23.286;2023-05-20T08:46:27;95282.09;;;19.67;52.55
69524;BME280;56723;42.694;23.286;2023-05-20T08:48:55;95285.31;;;19.69;50.69
69524;BME280;56723;42.694;23.286;2023-05-20T08:51:26;95284.56;;;19.62;52.18
69524;BME280;56723;42.694;23.286;2023-05-20T08:53:53;95283.22;;;19.78;51.56
69524;BME280;56723;42.694;23.286;2023-05-20T08:56:21;95275.84;;;19.87;51.06
69524;BME280;56723;42.694;23.286;2023-05-20T08:58:49;95274.56;;;19.96;51.19
69524;BME280;56723;42.694;23.286;2023-05-20T09:01:16;95284.53;;;20.12;52.53
69524;BME280;56723;42.694;23.286;2023-05-20T09:03:44;95273.16;;;20.18;50.58
69524;BME280;56723;42.694;23.286;2023-05-20T09:06:16;95261.28;;;20.27;50.47
69524;BME280;56723;42.694;23.286;2023-05-20T09:08:48;95258.03;;;20.50;51.74
69524;BME280;56723;42.694;23.286;2023-05-20T09:11:16;95254.66;;;20.43;50.35
69524;BME280;56723;42.694;23.286;2023-05-20T09:13:44;95252.31;;;20.17;50.12
69524;BME280;56723;42.694;23.286;2023-05-20T09:16:11;95254.03;;;20.04;50.93
69524;BME280;56723;42.694;23.286;2023-05-20T09:18:39;95254.59;;;19.88;52.63
69524;BME280;56723;42.694;23.286;2023-05-20T09:21:08;95248.88;;;19.73;51.46
69524;BME280;56723;42.694;23.286;2023-05-20T09:23:36;95240.63;;;19.69;51.35
69524;BME280;56723;42.694;23.286;2023-05-20T09:26:04;95242.94;;;19.59;51.62
69524;BME280;56723;42.694;23.286;2023-05-20T09:28:31;95252.59;;;19.65;51.55
69524;BME280;56723;42.694;23.286;2023-05-20T09:30:59;95248.06;;;19.73;51.87
69524;BME280;56723;42.694;23.286;2023-05-20T09:33:27;95251.63;;;19.85;52.54
69524;BME280;56723;42.694;23.286;2023-05-20T09:36:08;95244.63;;;19.97;51.03
69524;BME280;56723;42.694;23.286;2023-05-20T09:38:37;95245.00;;;20.19;51.17
69524;BME280;56723;42.694;23.286;2023-05-20T09:41:12;95233.03;;;20.41;50.53
69524;BME280;56723;42.694;23.286;2023-05-20T09:43:41;95240.38;;;20.69;50.25
69524;BME280;56723;42.694;23.286;2023-05-20T09:46:08;95244.28;;;20.96;47.94
69524;BME280;56723;42.694;23.286;2023-05-20T09:48:36;95232.09;;;21.14;48.46
69524;BME280;56723;42.694;23.286;2023-05-20T09:51:04;95230.59;;;21.18;45.77
69524;BME280;56723;42.694;23.286;2023-05-20T09:53:32;95231.50;;;21.12;46.52
69524;BME280;56723;42.694;23.286;2023-05-20T09:55:59;95226.59;;;21.15;45.34
69524;BME280;56723;42.694;23.286;2023-05-20T09:58:28;95215.78;;;21.17;45.74
69524;BME280;56723;42.694;23.286;2023-05-20T10:00:55;95208.16;;;20.85;46.07
69524;BME280;56723;42.694;23.286;2023-05-20T10:03:23;95210.28;;;20.95;46.13
69524;BME280;56723;42.694;23.286;2023-05-20T10:19:57;95196.19;;;22.01;43.00
69524;BME280;56723;42.694;23.286;2023-05-20T10:22:29;95186.22;;;21.80;41.91
69524;BME280;56723;42.694;23.286;2023-05-20T10:24:58;95188.72;;;21.98;42.52
69524;BME280;56723;42.694;23.286;2023-05-20T10:27:25;95184.38;;;22.03;41.40
69524;BME280;56723;42.694;23.286;2023-05-20T10:29:55;95183.31;;;22.16;40.30
69524;BME280;56723;42.694;23.286;2023-05-20T10:32:30;95185.03;;;22.22;40.78
69524;BME280;56723;42.694;23.286;2023-05-20T10:35:04;95191.34;;;22.21;40.86
69524;BME280;56723;42.694;23.286;2023-05-20T10:37:33;95171.13;;;22.27;40.23
69524;BME280;56723;42.694;23.286;2023-05-20T10:40:09;95175.66;;;22.03;40.99
69524;BME280;56723;42.694;23.286;2023-05-20T10:42:40;95174.28;;;21.89;40.14
69524;BME280;56723;42.694;23.286;2023-05-20T10:45:08;95161.78;;;21.84;40.08
69524;BME280;56723;42.694;23.286;2023-05-20T10:47:36;95159.72;;;21.63;39.90
69524;BME280;56723;42.694;23.286;2023-05-20T10:50:03;95147.47;;;21.45;40.38
69524;BME280;56723;42.694;23.286;2023-05-20T10:52:35;95140.34;;;21.46;41.16
69524;BME280;56723;42.694;23.286;2023-05-20T10:55:02;95146.31;;;21.53;39.94
69524;BME280;56723;42.694;23.286;2023-05-20T10:57:30;95151.34;;;21.66;40.33
69524;BME280;56723;42.694;23.286;2023-05-20T11:00:00;95135.25;;;21.91;39.59
69524;BME280;56723;42.694;23.286;2023-05-20T11:02:31;95134.59;;;21.84;39.29
69524;BME280;56723;42.694;23.286;2023-05-20T11:05:04;95130.78;;;21.91;39.85
69524;BME280;56723;42.694;23.286;2023-05-20T11:07:32;95148.81;;;22.06;40.10
69524;BME280;56723;42.694;23.286;2023-05-20T11:09:59;95135.06;;;22.32;40.23
69524;BME280;56723;42.694;23.286;2023-05-20T11:12:26;95127.75;;;22.51;38.12
69524;BME280;56723;42.694;23.286;2023-05-20T11:14:54;95125.16;;;22.68;38.12
69524;BME280;56723;42.694;23.286;2023-05-20T11:17:21;95123.88;;;22.82;37.96
69524;BME280;56723;42.694;23.286;2023-05-20T11:19:49;95130.00;;;22.88;38.20
69524;BME280;56723;42.694;23.286;2023-05-20T11:22:16;95121.13;;;22.77;38.88
69524;BME280;56723;42.694;23.286;2023-05-20T11:24:43;95116.72;;;22.54;39.65
69524;BME280;56723;42.694;23.286;2023-05-20T11:27:10;95122.44;;;22.63;39.42
69524;BME280;56723;42.694;23.286;2023-05-20T11:29:38;95109.97;;;22.75;38.89
69524;BME280;56723;42.694;23.286;2023-05-20T11:32:06;95101.47;;;22.73;38.56
69524;BME280;56723;42.694;23.286;2023-05-20T11:34:35;95096.53;;;22.76;38.21
69524;BME280;56723;42.694;23.286;2023-05-20T11:37:06;95094.47;;;22.95;39.02
69524;BME280;56723;42.694;23.286;2023-05-20T11:39:35;95096.22;;;23.06;37.67
69524;BME280;56723;42.694;23.286;2023-05-20T11:42:03;95084.53;;;23.02;38.51
69524;BME280;56723;42.694;23.286;2023-05-20T11:44:31;95077.47;;;22.74;39.44
69524;BME280;56723;42.694;23.286;2023-05-20T11:47:00;95084.72;;;22.79;40.02
69524;BME280;56723;42.694;23.286;2023-05-20T11:49:27;95084.22;;;22.54;40.21
69524;BME280;56723;42.694;23.286;2023-05-20T11:51:55;95086.31;;;22.52;40.06
69524;BME280;56723;42.694;23.286;2023-05-20T11:54:23;95086.41;;;22.57;39.75
69524;BME280;56723;42.694;23.286;2023-05-20T11:56:50;95079.78;;;22.71;40.55
69524;BME280;56723;42.694;23.286;2023-05-20T11:59:22;95071.84;;;22.71;40.23
69524;BME280;56723;42.694;23.286;2023-05-20T12:01:50;95081.19;;;22.90;39.85
69524;BME280;56723;42.694;23.286;2023-05-20T12:04:17;95083.72;;;22.85;39.84
69524;BME280;56723;42.694;23.286;2023-05-20T12:06:44;95074.56;;;22.59;39.13
69524;BME280;56723;42.694;23.286;2023-05-20T12:09:12;95068.47;;;22.42;40.47
69524;BME280;56723;42.694;23.286;2023-05-20T12:11:40;95064.16;;;22.69;40.50
69524;BME280;56723;42.694;23.286;2023-05-20T12:14:10;95057.59;;;22.72;40.08
69524;BME280;56723;42.694;23.286;2023-05-20T12:16:37;95057.63;;;22.89;38.96
69524;BME280;56723;42.694;23.286;2023-05-20T12:19:04;95063.38;;;23.02;39.64
69524;BME280;56723;42.694;23.286;2023-05-20T12:21:31;95076.31;;;22.99;38.91
69524;BME280;56723;42.694;23.286;2023-05-20T12:23:58;95068.97;;;22.72;38.41
69524;BME280;56723;42.694;23.286;2023-05-20T12:26:27;95064.09;;;22.19;39.51
69524;BME280;56723;42.694;23.286;2023-05-20T12:28:55;95072.09;;;22.24;39.41
69524;BME280;56723;42.694;23.286;2023-05-20T12:31:22;95081.84;;;22.24;39.57
69524;BME280;56723;42.694;23.286;2023-05-20T12:33:49;95076.28;;;21.97;40.20
69524;BME280;56723;42.694;23.286;2023-05-20T12:36:17;95090.91;;;21.88;38.79
69524;BME280;56723;42.694;23.286;2023-05-20T12:38:45;95094.22;;;21.83;38.10
69524;BME280;56723;42.694;23.286;2023-05-20T12:41:12;95111.34;;;21.46;39.21
69524;BME280;56723;42.694;23.286;2023-05-20T12:43:39;95106.22;;;21.27;40.75
69524;BME280;56723;42.694;23.286;2023-05-20T12:46:07;95108.34;;;21.07;41.71
69524;BME280;56723;42.694;23.286;2023-05-20T12:48:34;95122.03;;;20.86;39.85
69524;BME280;56723;42.694;23.286;2023-05-20T12:51:02;95129.13;;;20.44;37.90
69524;BME280;56723;42.694;23.286;2023-05-20T12:53:30;95109.88;;;20.13;38.45
69524;BME280;56723;42.694;23.286;2023-05-20T12:55:57;95111.78;;;19.88;39.35
69524;BME280;56723;42.694;23.286;2023-05-20T12:58:24;95115.31;;;19.82;40.54
69524;BME280;56723;42.694;23.286;2023-05-20T13:00:51;95117.06;;;19.69;41.05
69524;BME280;56723;42.694;23.286;2023-05-20T13:03:18;95110.06;;;19.63;40.90
69524;BME280;56723;42.694;23.286;2023-05-20T13:05:46;95101.44;;;19.75;41.55
69524;BME280;56723;42.694;23.286;2023-05-20T13:08:13;95101.94;;;19.83;41.18
69524;BME280;56723;42.694;23.286;2023-05-20T13:10:40;95105.28;;;20.09;41.83
69524;BME280;56723;42.694;23.286;2023-05-20T13:13:07;95085.53;;;20.48;41.23
69524;BME280;56723;42.694;23.286;2023-05-20T13:15:34;95082.72;;;20.61;40.89
69524;BME280;56723;42.694;23.286;2023-05-20T13:18:03;95085.47;;;20.66;41.29
69524;BME280;56723;42.694;23.286;2023-05-20T13:20:32;95072.69;;;20.81;41.83
69524;BME280;56723;42.694;23.286;2023-05-20T13:23:00;95065.47;;;21.00;42.20
69524;BME280;56723;42.694;23.286;2023-05-20T13:25:27;95060.31;;;21.17;41.23
69524;BME280;56723;42.694;23.286;2023-05-20T13:27:54;95064.38;;;21.31;41.11
69524;BME280;56723;42.694;23.286;2023-05-20T13:30:22;95057.38;;;21.25;41.07
69524;BME280;56723;42.694;23.286;2023-05-20T13:32:49;95055.31;;;21.27;40.83
69524;BME280;56723;42.694;23.286;2023-05-20T13:35:16;95062.19;;;21.28;40.96
69524;BME280;56723;42.694;23.286;2023-05-20T13:37:43;95060.72;;;21.20;41.03
69524;BME280;56723;42.694;23.286;2023-05-20T13:40:11;95066.09;;;21.14;41.24
69524;BME280;56723;42.694;23.286;2023-05-20T13:42:38;95055.53;;;21.14;41.67
69524;BME280;56723;42.694;23.286;2023-05-20T13:45:06;95058.06;;;21.08;41.70
69524;BME280;56723;42.694;23.286;2023-05-20T13:47:33;95073.19;;;21.25;42.91
69524;BME280;56723;42.694;23.286;2023-05-20T13:50:00;95077.66;;;21.13;43.17
69524;BME280;56723;42.694;23.286;2023-05-20T13:52:29;95057.19;;;20.61;44.01
69524;BME280;56723;42.694;23.286;2023-05-20T13:54:56;95057.81;;;20.75;44.35
69524;BME280;56723;42.694;23.286;2023-05-20T13:57:23;95054.38;;;20.98;43.99
69524;BME280;56723;42.694;23.286;2023-05-20T13:59:50;95052.22;;;21.06;43.72
69524;BME280;56723;42.694;23.286;2023-05-20T14:02:17;95043.25;;;21.19;44.06
69524;BME280;56723;42.694;23.286;2023-05-20T14:04:44;95037.00;;;21.32;44.53
69524;BME280;56723;42.694;23.286;2023-05-20T14:07:13;95033.66;;;21.48;44.53
69524;BME280;56723;42.694;23.286;2023-05-20T14:09:40;95029.13;;;21.60;45.08
69524;BME280;56723;42.694;23.286;2023-05-20T14:12:07;95019.16;;;21.62;44.43
69524;BME280;56723;42.694;23.286;2023-05-20T14:14:34;95022.66;;;21.80;44.72
69524;BME280;56723;42.694;23.286;2023-05-20T14:17:01;95015.88;;;21.84;45.00
69524;BME280;56723;42.694;23.286;2023-05-20T14:19:28;95024.31;;;21.97;44.53
69524;BME280;56723;42.694;23.286;2023-05-20T14:21:55;95017.19;;;21.69;44.83
69524;BME280;56723;42.694;23.286;2023-05-20T14:24:24;95022.47;;;21.69;45.03
69524;BME280;56723;42.694;23.286;2023-05-20T14:26:52;95024.53;;;21.67;44.99
69524;BME280;56723;42.694;23.286;2023-05-20T14:29:19;95016.94;;;21.71;45.13
69524;BME280;56723;42.694;23.286;2023-05-20T14:31:46;95020.38;;;21.71;45.29
69524;BME280;56723;42.694;23.286;2023-05-20T14:34:13;95025.59;;;21.55;46.07
69524;BME280;56723;42.694;23.286;2023-05-20T14:36:40;95017.03;;;21.36;46.70
69524;BME280;56723;42.694;23.286;2023-05-20T14:39:07;95021.50;;;21.00;47.57
69524;BME280;56723;42.694;23.286;2023-05-20T14:41:35;95022.53;;;20.76;47.89
69524;BME280;56723;42.694;23.286;2023-05-20T14:44:02;95016.09;;;20.60;47.57
69524;BME280;56723;42.694;23.286;2023-05-20T14:46:29;95015.50;;;20.47;47.62
69524;BME280;56723;42.694;23.286;2023-05-20T14:48:56;95016.25;;;20.35;47.98
69524;BME280;56723;42.694;23.286;2023-05-20T14:51:23;95019.66;;;20.24;48.57
69524;BME280;56723;42.694;23.286;2023-05-20T14:53:51;95023.06;;;20.13;48.42
69524;BME280;56723;42.694;23.286;2023-05-20T14:56:18;95024.31;;;20.11;48.62
69524;BME280;56723;42.694;23.286;2023-05-20T14:58:45;95018.06;;;19.93;48.39
69524;BME280;56723;42.694;23.286;2023-05-20T15:01:12;95014.38;;;19.83;48.37
69524;BME280;56723;42.694;23.286;2023-05-20T15:03:39;95010.28;;;19.68;48.90
69524;BME280;56723;42.694;23.286;2023-05-20T15:06:06;95007.09;;;19.66;49.97
69524;BME280;56723;42.694;23.286;2023-05-20T15:08:33;95012.50;;;19.53;50.78
69524;BME280;56723;42.694;23.286;2023-05-20T15:11:00;95021.47;;;19.46;52.40
69524;BME280;56723;42.694;23.286;2023-05-20T15:13:27;95024.25;;;19.51;52.63
69524;BME280;56723;42.694;23.286;2023-05-20T15:15:54;95018.84;;;19.46;54.16
69524;BME280;56723;42.694;23.286;2023-05-20T15:18:22;95024.75;;;19.41;53.18
69524;BME280;56723;42.694;23.286;2023-05-20T15:20:49;95007.81;;;19.37;53.76
69524;BME280;56723;42.694;23.286;2023-05-20T15:23:16;95003.22;;;19.32;54.22
69524;BME280;56723;42.694;23.286;2023-05-20T15:25:43;95016.81;;;19.29;54.59
69524;BME280;56723;42.694;23.286;2023-05-20T15:28:10;95007.53;;;19.27;54.93
69524;BME280;56723;42.694;23.286;2023-05-20T15:30:37;95015.63;;;19.25;54.73
69524;BME280;56723;42.694;23.286;2023-05-20T15:33:04;95008.03;;;19.17;55.10
69524;BME280;56723;42.694;23.286;2023-05-20T15:35:32;94992.78;;;19.08;55.86
69524;BME280;56723;42.694;23.286;2023-05-20T15:37:59;95001.09;;;19.23;56.00
69524;BME280;56723;42.694;23.286;2023-05-20T15:40:26;95013.38;;;19.47;55.60
69524;BME280;56723;42.694;23.286;2023-05-20T15:42:53;95002.94;;;19.41;55.50
69524;BME280;56723;42.694;23.286;2023-05-20T15:45:20;94998.41;;;19.48;55.75
69524;BME280;56723;42.694;23.286;2023-05-20T15:47:48;94993.56;;;19.81;53.86
69524;BME280;56723;42.694;23.286;2023-05-20T15:50:15;94996.88;;;20.18;52.97
69524;BME280;56723;42.694;23.286;2023-05-20T15:52:42;94990.66;;;20.43;50.83
69524;BME280;56723;42.694;23.286;2023-05-20T15:55:09;94995.50;;;20.57;49.94
69524;BME280;56723;42.694;23.286;2023-05-20T15:57:36;94991.41;;;20.73;50.23
69524;BME280;56723;42.694;23.286;2023-05-20T16:00:04;94991.13;;;20.63;49.84
69524;BME280;56723;42.694;23.286;2023-05-20T16:02:36;95000.28;;;20.37;51.20
69524;BME280;56723;42.694;23.286;2023-05-20T16:05:04;94995.81;;;20.08;51.78
69524;BME280;56723;42.694;23.286;2023-05-20T16:07:31;94995.81;;;19.78;52.28
69524;BME280;56723;42.694;23.286;2023-05-20T16:09:59;94979.34;;;19.52;53.86
69524;BME280;56723;42.694;23.286;2023-05-20T16:12:26;94994.97;;;19.47;54.40
69524;BME280;56723;42.694;23.286;2023-05-20T16:14:53;95003.41;;;19.49;53.54
69524;BME280;56723;42.694;23.286;2023-05-20T16:17:20;94999.34;;;19.71;53.67
69524;BME280;56723;42.694;23.286;2023-05-20T16:19:48;94998.19;;;19.97;52.71
69524;BME280;56723;42.694;23.286;2023-05-20T16:22:16;95005.41;;;20.02;52.65
69524;BME280;56723;42.694;23.286;2023-05-20T16:24:44;95000.84;;;20.09;52.53
69524;BME280;56723;42.694;23.286;2023-05-20T16:27:11;95003.63;;;20.14;52.62
69524;BME280;56723;42.694;23.286;2023-05-20T16:29:38;94998.50;;;20.31;52.22
69524;BME280;56723;42.694;23.286;2023-05-20T16:32:06;94993.59;;;20.34;51.15
69524;BME280;56723;42.694;23.286;2023-05-20T16:34:33;95005.69;;;20.65;50.27
69524;BME280;56723;42.694;23.286;2023-05-20T16:37:00;94995.41;;;20.76;50.26
69524;BME280;56723;42.694;23.286;2023-05-20T16:39:27;95004.31;;;20.98;49.18
69524;BME280;56723;42.694;23.286;2023-05-20T16:41:54;95001.56;;;21.04;48.57
69524;BME280;56723;42.694;23.286;2023-05-20T16:44:21;95007.88;;;20.92;49.06
69524;BME280;56723;42.694;23.286;2023-05-20T16:46:48;95007.66;;;20.93;49.06
69524;BME280;56723;42.694;23.286;2023-05-20T16:49:19;95008.56;;;20.99;48.06
69524;BME280;56723;42.694;23.286;2023-05-20T16:51:46;95009.94;;;21.01;48.15
69524;BME280;56723;42.694;23.286;2023-05-20T16:54:13;95016.00;;;20.90;47.70
69524;BME280;56723;42.694;23.286;2023-05-20T16:56:40;95010.28;;;20.70;48.35
69524;BME280;56723;42.694;23.286;2023-05-20T16:59:07;95009.16;;;20.36;49.06
69524;BME280;56723;42.694;23.286;2023-05-20T17:01:34;95010.03;;;20.18;49.24
